sensor_id;sensor_type;location;lat;lon;timestamp;P1;durP1;ratioP1;P2;durP2;ratioP2
64029;SDS011;50277;52.064;4.492;2023-11-19T00:01:31;44.08;;;6.90;;
64029;SDS011;50277;52.064;4.492;2023-11-19T00:03:57;38.60;;;5.32;;
64029;SDS011;50277;52.064;4.492;2023-11-19T00:06:23;42.47;;;7.10;;
64029;SDS011;50277;52.064;4.492;2023-11-19T00:08:48;52.75;;;7.15;;
64029;SDS011;50277;52.064;4.492;2023-11-19T00:11:13;48.15;;;7.85;;
64029;SDS011;50277;52.064;4.492;2023-11-19T00:13:40;31.80;;;6.30;;
64029;SDS011;50277;52.064;4.492;2023-11-19T00:16:06;36.60;;;6.57;;
64029;SDS011;50277;52.064;4.492;2023-11-19T00:18:32;39.20;;;7.53;;
64029;SDS011;50277;52.064;4.492;2023-11-19T00:20:58;51.10;;;9.27;;
64029;SDS011;50277;52.064;4.492;2023-11-19T00:23:23;44.22;;;6.40;;
64029;SDS011;50277;52.064;4.492;2023-11-19T00:25:48;38.78;;;7.28;;
64029;SDS011;50277;52.064;4.492;2023-11-19T00:28:14;49.85;;;7.32;;
64029;SDS011;50277;52.064;4.492;2023-11-19T00:30:39;46.45;;;6.78;;
64029;SDS011;50277;52.064;4.492;2023-11-19T00:33:06;38.40;;;6.25;;
64029;SDS011;50277;52.064;4.492;2023-11-19T00:35:31;48.70;;;7.15;;
64029;SDS011;50277;52.064;4.492;2023-11-19T00:37:57;51.17;;;6.85;;
64029;SDS011;50277;52.064;4.492;2023-11-19T00:40:23;41.67;;;6.93;;
64029;SDS011;50277;52.064;4.492;2023-11-19T00:42:48;41.25;;;6.07;;
64029;SDS011;50277;52.064;4.492;2023-11-19T00:45:14;44.15;;;6.65;;
64029;SDS011;50277;52.064;4.492;2023-11-19T00:47:40;40.72;;;7.82;;
64029;SDS011;50277;52.064;4.492;2023-11-19T00:50:05;36.28;;;6.18;;
64029;SDS011;50277;52.064;4.492;2023-11-19T00:52:34;40.90;;;7.22;;
64029;SDS011;50277;52.064;4.492;2023-11-19T00:54:59;48.80;;;6.90;;
64029;SDS011;50277;52.064;4.492;2023-11-19T00:57:25;53.38;;;8.23;;
64029;SDS011;50277;52.064;4.492;2023-11-19T00:59:51;44.25;;;8.20;;
64029;SDS011;50277;52.064;4.492;2023-11-19T01:02:17;34.75;;;7.22;;
64029;SDS011;50277;52.064;4.492;2023-11-19T01:04:42;43.15;;;7.30;;
64029;SDS011;50277;52.064;4.492;2023-11-19T01:07:09;46.30;;;7.45;;
64029;SDS011;50277;52.064;4.492;2023-11-19T01:12:02;42.70;;;7.13;;
64029;SDS011;50277;52.064;4.492;2023-11-19T01:14:28;46.85;;;7.50;;
64029;SDS011;50277;52.064;4.492;2023-11-19T01:16:54;57.92;;;8.38;;
64029;SDS011;50277;52.064;4.492;2023-11-19T01:19:20;51.65;;;7.60;;
64029;SDS011;50277;52.064;4.492;2023-11-19T01:21:47;53.10;;;6.93;;
64029;SDS011;50277;52.064;4.492;2023-11-19T01:24:12;43.30;;;7.30;;
64029;SDS011;50277;52.064;4.492;2023-11-19T01:26:39;43.00;;;6.85;;
64029;SDS011;50277;52.064;4.492;2023-11-19T01:29:10;49.63;;;7.53;;
64029;SDS011;50277;52.064;4.492;2023-11-19T01:31:36;50.28;;;7.53;;
64029;SDS011;50277;52.064;4.492;2023-11-19T01:34:02;41.78;;;7.88;;
64029;SDS011;50277;52.064;4.492;2023-11-19T01:36:27;45.78;;;7.78;;
64029;SDS011;50277;52.064;4.492;2023-11-19T01:38:53;51.17;;;7.90;;
64029;SDS011;50277;52.064;4.492;2023-11-19T01:41:18;43.38;;;7.50;;
64029;SDS011;50277;52.064;4.492;2023-11-19T01:43:44;52.08;;;8.07;;
64029;SDS011;50277;52.064;4.492;2023-11-19T01:46:12;52.67;;;7.93;;
64029;SDS011;50277;52.064;4.492;2023-11-19T01:48:39;50.08;;;8.57;;
64029;SDS011;50277;52.064;4.492;2023-11-19T01:51:06;47.80;;;7.15;;
64029;SDS011;50277;52.064;4.492;2023-11-19T01:53:32;50.88;;;8.35;;
64029;SDS011;50277;52.064;4.492;2023-11-19T01:55:59;43.17;;;7.65;;
64029;SDS011;50277;52.064;4.492;2023-11-19T01:58:25;49.50;;;7.25;;
64029;SDS011;50277;52.064;4.492;2023-11-19T02:00:51;44.22;;;7.60;;
64029;SDS011;50277;52.064;4.492;2023-11-19T02:03:16;53.40;;;7.25;;
64029;SDS011;50277;52.064;4.492;2023-11-19T02:05:42;58.53;;;8.95;;
64029;SDS011;50277;52.064;4.492;2023-11-19T02:08:07;44.53;;;7.43;;
64029;SDS011;50277;52.064;4.492;2023-11-19T02:10:33;42.95;;;8.15;;
64029;SDS011;50277;52.064;4.492;2023-11-19T02:12:58;56.97;;;8.10;;
64029;SDS011;50277;52.064;4.492;2023-11-19T02:15:24;49.50;;;8.65;;
64029;SDS011;50277;52.064;4.492;2023-11-19T02:17:49;43.05;;;6.80;;
64029;SDS011;50277;52.064;4.492;2023-11-19T02:20:15;51.95;;;8.10;;
64029;SDS011;50277;52.064;4.492;2023-11-19T02:22:41;58.63;;;8.55;;
64029;SDS011;50277;52.064;4.492;2023-11-19T02:25:25;52.83;;;7.63;;
64029;SDS011;50277;52.064;4.492;2023-11-19T02:27:58;44.67;;;8.18;;
64029;SDS011;50277;52.064;4.492;2023-11-19T02:30:25;48.70;;;7.20;;
64029;SDS011;50277;52.064;4.492;2023-11-19T02:32:57;48.80;;;7.88;;
64029;SDS011;50277;52.064;4.492;2023-11-19T02:35:25;44.53;;;8.45;;
64029;SDS011;50277;52.064;4.492;2023-11-19T02:37:51;52.00;;;8.52;;
64029;SDS011;50277;52.064;4.492;2023-11-19T02:40:16;47.63;;;8.65;;
64029;SDS011;50277;52.064;4.492;2023-11-19T02:42:42;49.55;;;8.20;;
64029;SDS011;50277;52.064;4.492;2023-11-19T02:45:08;50.47;;;8.55;;
64029;SDS011;50277;52.064;4.492;2023-11-19T02:47:38;52.75;;;7.38;;
64029;SDS011;50277;52.064;4.492;2023-11-19T02:50:04;49.88;;;8.85;;
64029;SDS011;50277;52.064;4.492;2023-11-19T02:52:32;48.83;;;8.60;;
64029;SDS011;50277;52.064;4.492;2023-11-19T02:55:02;59.28;;;9.80;;
64029;SDS011;50277;52.064;4.492;2023-11-19T02:57:30;52.15;;;8.38;;
64029;SDS011;50277;52.064;4.492;2023-11-19T02:59:57;45.92;;;7.32;;
64029;SDS011;50277;52.064;4.492;2023-11-19T03:02:23;45.55;;;9.48;;
64029;SDS011;50277;52.064;4.492;2023-11-19T03:04:58;47.05;;;7.38;;
64029;SDS011;50277;52.064;4.492;2023-11-19T03:07:24;49.05;;;7.90;;
64029;SDS011;50277;52.064;4.492;2023-11-19T03:09:49;41.85;;;7.72;;
64029;SDS011;50277;52.064;4.492;2023-11-19T03:12:14;49.00;;;8.07;;
64029;SDS011;50277;52.064;4.492;2023-11-19T03:14:40;53.08;;;9.15;;
64029;SDS011;50277;52.064;4.492;2023-11-19T03:17:05;56.28;;;8.82;;
64029;SDS011;50277;52.064;4.492;2023-11-19T03:19:31;48.00;;;8.15;;
64029;SDS011;50277;52.064;4.492;2023-11-19T03:21:56;48.58;;;7.47;;
64029;SDS011;50277;52.064;4.492;2023-11-19T03:24:21;52.78;;;8.68;;
64029;SDS011;50277;52.064;4.492;2023-11-19T03:26:50;53.25;;;8.65;;
64029;SDS011;50277;52.064;4.492;2023-11-19T03:29:15;48.65;;;7.50;;
64029;SDS011;50277;52.064;4.492;2023-11-19T03:31:44;48.25;;;7.82;;
64029;SDS011;50277;52.064;4.492;2023-11-19T03:34:12;45.78;;;7.43;;
64029;SDS011;50277;52.064;4.492;2023-11-19T03:36:37;62.08;;;9.13;;
64029;SDS011;50277;52.064;4.492;2023-11-19T03:39:02;47.85;;;7.63;;
64029;SDS011;50277;52.064;4.492;2023-11-19T03:41:28;52.25;;;7.80;;
64029;SDS011;50277;52.064;4.492;2023-11-19T03:43:53;40.63;;;8.23;;
64029;SDS011;50277;52.064;4.492;2023-11-19T03:46:19;46.17;;;7.30;;
64029;SDS011;50277;52.064;4.492;2023-11-19T03:48:48;45.95;;;8.18;;
64029;SDS011;50277;52.064;4.492;2023-11-19T03:51:14;52.15;;;9.75;;
64029;SDS011;50277;52.064;4.492;2023-11-19T03:53:43;48.28;;;8.63;;
64029;SDS011;50277;52.064;4.492;2023-11-19T03:56:09;44.65;;;7.57;;
64029;SDS011;50277;52.064;4.492;2023-11-19T03:58:35;44.13;;;7.35;;
64029;SDS011;50277;52.064;4.492;2023-11-19T04:01:01;59.65;;;9.57;;
64029;SDS011;50277;52.064;4.492;2023-11-19T04:03:26;58.67;;;8.38;;
64029;SDS011;50277;52.064;4.492;2023-11-19T04:05:51;47.88;;;7.72;;
64029;SDS011;50277;52.064;4.492;2023-11-19T04:08:17;57.60;;;8.30;;
64029;SDS011;50277;52.064;4.492;2023-11-19T04:10:42;56.40;;;7.57;;
64029;SDS011;50277;52.064;4.492;2023-11-19T04:13:07;50.35;;;8.32;;
64029;SDS011;50277;52.064;4.492;2023-11-19T04:15:33;55.63;;;9.10;;
64029;SDS011;50277;52.064;4.492;2023-11-19T04:17:58;47.40;;;8.05;;
64029;SDS011;50277;52.064;4.492;2023-11-19T04:20:23;43.60;;;6.88;;
64029;SDS011;50277;52.064;4.492;2023-11-19T04:22:50;48.95;;;8.65;;
64029;SDS011;50277;52.064;4.492;2023-11-19T04:25:16;55.25;;;8.50;;
64029;SDS011;50277;52.064;4.492;2023-11-19T04:27:41;66.28;;;9.25;;
64029;SDS011;50277;52.064;4.492;2023-11-19T04:30:07;51.00;;;8.43;;
64029;SDS011;50277;52.064;4.492;2023-11-19T04:32:35;54.00;;;8.43;;
64029;SDS011;50277;52.064;4.492;2023-11-19T04:35:01;46.88;;;7.55;;
64029;SDS011;50277;52.064;4.492;2023-11-19T04:37:26;43.40;;;7.53;;
64029;SDS011;50277;52.064;4.492;2023-11-19T04:39:51;49.45;;;7.05;;
64029;SDS011;50277;52.064;4.492;2023-11-19T04:42:17;35.47;;;6.72;;
64029;SDS011;50277;52.064;4.492;2023-11-19T04:44:42;34.00;;;7.97;;
64029;SDS011;50277;52.064;4.492;2023-11-19T04:47:08;36.20;;;6.63;;
64029;SDS011;50277;52.064;4.492;2023-11-19T04:49:36;41.95;;;7.53;;
64029;SDS011;50277;52.064;4.492;2023-11-19T04:52:10;51.40;;;9.18;;
64029;SDS011;50277;52.064;4.492;2023-11-19T04:54:40;43.67;;;7.65;;
64029;SDS011;50277;52.064;4.492;2023-11-19T04:57:07;47.67;;;7.43;;
64029;SDS011;50277;52.064;4.492;2023-11-19T04:59:34;42.70;;;7.85;;
64029;SDS011;50277;52.064;4.492;2023-11-19T05:01:59;39.97;;;7.60;;
64029;SDS011;50277;52.064;4.492;2023-11-19T05:04:25;38.97;;;6.65;;
64029;SDS011;50277;52.064;4.492;2023-11-19T05:06:51;48.85;;;6.53;;
64029;SDS011;50277;52.064;4.492;2023-11-19T05:09:16;37.78;;;7.03;;
64029;SDS011;50277;52.064;4.492;2023-11-19T05:11:41;35.05;;;7.00;;
64029;SDS011;50277;52.064;4.492;2023-11-19T05:14:07;45.40;;;6.47;;
64029;SDS011;50277;52.064;4.492;2023-11-19T05:16:32;38.15;;;7.03;;
64029;SDS011;50277;52.064;4.492;2023-11-19T05:18:57;42.50;;;6.85;;
64029;SDS011;50277;52.064;4.492;2023-11-19T05:21:23;45.85;;;7.80;;
64029;SDS011;50277;52.064;4.492;2023-11-19T05:23:49;42.10;;;7.07;;
64029;SDS011;50277;52.064;4.492;2023-11-19T05:26:21;44.10;;;7.63;;
64029;SDS011;50277;52.064;4.492;2023-11-19T05:28:47;49.60;;;7.88;;
64029;SDS011;50277;52.064;4.492;2023-11-19T05:31:13;44.25;;;7.20;;
64029;SDS011;50277;52.064;4.492;2023-11-19T05:33:38;43.00;;;7.60;;
64029;SDS011;50277;52.064;4.492;2023-11-19T05:36:04;42.40;;;6.80;;
64029;SDS011;50277;52.064;4.492;2023-11-19T05:38:30;43.10;;;7.55;;
64029;SDS011;50277;52.064;4.492;2023-11-19T05:40:55;34.75;;;6.22;;
64029;SDS011;50277;52.064;4.492;2023-11-19T05:43:20;40.95;;;7.80;;
64029;SDS011;50277;52.064;4.492;2023-11-19T05:45:46;39.60;;;6.82;;
64029;SDS011;50277;52.064;4.492;2023-11-19T05:48:11;33.80;;;7.30;;
64029;SDS011;50277;52.064;4.492;2023-11-19T05:50:37;32.08;;;7.18;;
64029;SDS011;50277;52.064;4.492;2023-11-19T05:53:03;43.92;;;8.23;;
64029;SDS011;50277;52.064;4.492;2023-11-19T05:55:33;39.70;;;6.47;;
64029;SDS011;50277;52.064;4.492;2023-11-19T05:57:59;48.00;;;7.97;;
64029;SDS011;50277;52.064;4.492;2023-11-19T06:00:24;44.95;;;7.43;;
64029;SDS011;50277;52.064;4.492;2023-11-19T06:02:51;46.88;;;7.50;;
64029;SDS011;50277;52.064;4.492;2023-11-19T06:05:17;41.70;;;7.43;;
64029;SDS011;50277;52.064;4.492;2023-11-19T06:07:43;41.25;;;6.60;;
64029;SDS011;50277;52.064;4.492;2023-11-19T06:10:08;37.03;;;6.63;;
64029;SDS011;50277;52.064;4.492;2023-11-19T06:12:34;36.35;;;6.10;;
64029;SDS011;50277;52.064;4.492;2023-11-19T06:15:03;37.83;;;6.83;;
64029;SDS011;50277;52.064;4.492;2023-11-19T06:17:30;46.17;;;7.35;;
64029;SDS011;50277;52.064;4.492;2023-11-19T06:19:55;39.13;;;7.20;;
64029;SDS011;50277;52.064;4.492;2023-11-19T06:22:20;38.05;;;7.10;;
64029;SDS011;50277;52.064;4.492;2023-11-19T06:24:46;38.80;;;7.40;;
64029;SDS011;50277;52.064;4.492;2023-11-19T06:27:11;41.70;;;6.82;;
64029;SDS011;50277;52.064;4.492;2023-11-19T06:29:36;38.72;;;6.30;;
64029;SDS011;50277;52.064;4.492;2023-11-19T06:32:02;40.63;;;7.30;;
64029;SDS011;50277;52.064;4.492;2023-11-19T06:34:27;41.83;;;6.25;;
64029;SDS011;50277;52.064;4.492;2023-11-19T06:36:53;37.08;;;7.15;;
64029;SDS011;50277;52.064;4.492;2023-11-19T06:39:18;55.97;;;9.30;;
64029;SDS011;50277;52.064;4.492;2023-11-19T06:41:45;48.22;;;8.02;;
64029;SDS011;50277;52.064;4.492;2023-11-19T06:44:11;46.88;;;6.63;;
64029;SDS011;50277;52.064;4.492;2023-11-19T06:46:36;48.25;;;7.90;;
64029;SDS011;50277;52.064;4.492;2023-11-19T06:49:02;37.70;;;6.53;;
64029;SDS011;50277;52.064;4.492;2023-11-19T06:51:27;48.15;;;7.43;;
64029;SDS011;50277;52.064;4.492;2023-11-19T06:53:53;42.67;;;8.15;;
64029;SDS011;50277;52.064;4.492;2023-11-19T06:56:19;47.47;;;7.95;;
64029;SDS011;50277;52.064;4.492;2023-11-19T06:58:47;46.13;;;7.20;;
64029;SDS011;50277;52.064;4.492;2023-11-19T07:01:13;44.90;;;8.73;;
64029;SDS011;50277;52.064;4.492;2023-11-19T07:03:40;47.50;;;8.43;;
64029;SDS011;50277;52.064;4.492;2023-11-19T07:06:05;37.00;;;6.28;;
64029;SDS011;50277;52.064;4.492;2023-11-19T07:08:30;39.80;;;8.23;;
64029;SDS011;50277;52.064;4.492;2023-11-19T07:10:56;39.80;;;6.97;;
64029;SDS011;50277;52.064;4.492;2023-11-19T07:13:21;40.50;;;7.22;;
64029;SDS011;50277;52.064;4.492;2023-11-19T07:15:47;36.25;;;6.78;;
64029;SDS011;50277;52.064;4.492;2023-11-19T07:18:12;46.47;;;6.78;;
64029;SDS011;50277;52.064;4.492;2023-11-19T07:20:39;34.83;;;7.28;;
64029;SDS011;50277;52.064;4.492;2023-11-19T07:23:05;54.72;;;8.73;;
64029;SDS011;50277;52.064;4.492;2023-11-19T07:25:31;47.08;;;8.45;;
64029;SDS011;50277;52.064;4.492;2023-11-19T07:27:56;38.20;;;5.88;;
64029;SDS011;50277;52.064;4.492;2023-11-19T07:30:22;47.20;;;8.27;;
64029;SDS011;50277;52.064;4.492;2023-11-19T07:32:47;37.40;;;7.05;;
64029;SDS011;50277;52.064;4.492;2023-11-19T07:35:13;44.15;;;7.65;;
64029;SDS011;50277;52.064;4.492;2023-11-19T07:37:38;45.58;;;8.18;;
64029;SDS011;50277;52.064;4.492;2023-11-19T07:40:04;43.35;;;6.15;;
64029;SDS011;50277;52.064;4.492;2023-11-19T07:42:30;46.45;;;8.65;;
64029;SDS011;50277;52.064;4.492;2023-11-19T07:44:56;45.00;;;7.28;;
64029;SDS011;50277;52.064;4.492;2023-11-19T07:47:22;41.78;;;6.68;;
64029;SDS011;50277;52.064;4.492;2023-11-19T07:49:48;45.47;;;8.10;;
64029;SDS011;50277;52.064;4.492;2023-11-19T07:52:13;36.45;;;7.20;;
64029;SDS011;50277;52.064;4.492;2023-11-19T07:54:39;53.45;;;8.30;;
64029;SDS011;50277;52.064;4.492;2023-11-19T07:57:04;39.95;;;8.40;;
64029;SDS011;50277;52.064;4.492;2023-11-19T07:59:30;37.15;;;7.15;;
64029;SDS011;50277;52.064;4.492;2023-11-19T08:01:55;34.88;;;6.32;;
64029;SDS011;50277;52.064;4.492;2023-11-19T08:04:20;35.67;;;6.72;;
64029;SDS011;50277;52.064;4.492;2023-11-19T08:06:46;45.33;;;7.35;;
64029;SDS011;50277;52.064;4.492;2023-11-19T08:09:11;41.72;;;6.78;;
64029;SDS011;50277;52.064;4.492;2023-11-19T08:11:38;38.83;;;8.27;;
64029;SDS011;50277;52.064;4.492;2023-11-19T08:14:05;44.53;;;7.75;;
64029;SDS011;50277;52.064;4.492;2023-11-19T08:16:30;38.03;;;7.35;;
64029;SDS011;50277;52.064;4.492;2023-11-19T08:18:56;39.63;;;7.45;;
64029;SDS011;50277;52.064;4.492;2023-11-19T08:21:23;35.28;;;7.43;;
64029;SDS011;50277;52.064;4.492;2023-11-19T08:23:48;45.13;;;7.10;;
64029;SDS011;50277;52.064;4.492;2023-11-19T08:26:14;35.00;;;6.88;;
64029;SDS011;50277;52.064;4.492;2023-11-19T08:28:40;46.80;;;7.32;;
64029;SDS011;50277;52.064;4.492;2023-11-19T08:31:05;39.83;;;7.57;;
64029;SDS011;50277;52.064;4.492;2023-11-19T08:33:31;38.28;;;6.78;;
64029;SDS011;50277;52.064;4.492;2023-11-19T08:35:56;41.55;;;7.47;;
64029;SDS011;50277;52.064;4.492;2023-11-19T08:38:23;39.42;;;7.72;;
64029;SDS011;50277;52.064;4.492;2023-11-19T08:40:49;42.85;;;7.28;;
64029;SDS011;50277;52.064;4.492;2023-11-19T08:43:14;33.97;;;6.75;;
64029;SDS011;50277;52.064;4.492;2023-11-19T08:45:40;35.20;;;6.72;;
64029;SDS011;50277;52.064;4.492;2023-11-19T08:48:05;49.92;;;8.18;;
64029;SDS011;50277;52.064;4.492;2023-11-19T08:50:31;39.72;;;7.45;;
64029;SDS011;50277;52.064;4.492;2023-11-19T08:52:56;36.08;;;6.40;;
64029;SDS011;50277;52.064;4.492;2023-11-19T08:55:21;48.28;;;8.57;;
64029;SDS011;50277;52.064;4.492;2023-11-19T08:57:47;41.10;;;7.60;;
64029;SDS011;50277;52.064;4.492;2023-11-19T09:00:12;40.63;;;7.65;;
64029;SDS011;50277;52.064;4.492;2023-11-19T09:02:39;39.60;;;6.60;;
64029;SDS011;50277;52.064;4.492;2023-11-19T09:05:05;38.38;;;7.70;;
64029;SDS011;50277;52.064;4.492;2023-11-19T09:07:32;37.90;;;8.50;;
64029;SDS011;50277;52.064;4.492;2023-11-19T09:09:57;42.58;;;8.38;;
64029;SDS011;50277;52.064;4.492;2023-11-19T09:12:23;43.42;;;7.65;;
64029;SDS011;50277;52.064;4.492;2023-11-19T09:14:49;41.17;;;8.20;;
64029;SDS011;50277;52.064;4.492;2023-11-19T09:17:14;44.03;;;8.13;;
64029;SDS011;50277;52.064;4.492;2023-11-19T09:19:40;37.47;;;7.65;;
64029;SDS011;50277;52.064;4.492;2023-11-19T09:22:05;33.90;;;7.15;;
64029;SDS011;50277;52.064;4.492;2023-11-19T09:24:31;36.03;;;6.80;;
64029;SDS011;50277;52.064;4.492;2023-11-19T09:26:56;38.88;;;6.65;;
64029;SDS011;50277;52.064;4.492;2023-11-19T09:29:22;47.70;;;8.32;;
64029;SDS011;50277;52.064;4.492;2023-11-19T09:31:47;32.95;;;6.75;;
64029;SDS011;50277;52.064;4.492;2023-11-19T09:34:12;37.28;;;7.40;;
64029;SDS011;50277;52.064;4.492;2023-11-19T09:36:38;33.28;;;7.20;;
64029;SDS011;50277;52.064;4.492;2023-11-19T09:39:04;39.33;;;7.28;;
64029;SDS011;50277;52.064;4.492;2023-11-19T09:41:30;40.88;;;7.20;;
64029;SDS011;50277;52.064;4.492;2023-11-19T09:43:56;35.75;;;6.82;;
64029;SDS011;50277;52.064;4.492;2023-11-19T09:46:22;35.83;;;6.78;;
64029;SDS011;50277;52.064;4.492;2023-11-19T09:48:49;33.50;;;7.22;;
64029;SDS011;50277;52.064;4.492;2023-11-19T09:51:19;29.73;;;6.47;;
64029;SDS011;50277;52.064;4.492;2023-11-19T09:53:45;34.83;;;6.90;;
64029;SDS011;50277;52.064;4.492;2023-11-19T09:56:10;27.52;;;6.75;;
64029;SDS011;50277;52.064;4.492;2023-11-19T09:58:36;31.08;;;7.28;;
64029;SDS011;50277;52.064;4.492;2023-11-19T10:01:02;36.45;;;6.90;;
64029;SDS011;50277;52.064;4.492;2023-11-19T10:03:32;32.00;;;6.93;;
64029;SDS011;50277;52.064;4.492;2023-11-19T10:05:59;33.22;;;6.85;;
64029;SDS011;50277;52.064;4.492;2023-11-19T10:08:26;27.98;;;6.32;;
64029;SDS011;50277;52.064;4.492;2023-11-19T10:10:51;33.28;;;7.05;;
64029;SDS011;50277;52.064;4.492;2023-11-19T10:13:16;26.92;;;6.57;;
64029;SDS011;50277;52.064;4.492;2023-11-19T10:15:42;30.65;;;6.57;;
64029;SDS011;50277;52.064;4.492;2023-11-19T10:18:08;36.70;;;7.47;;
64029;SDS011;50277;52.064;4.492;2023-11-19T10:20:37;32.78;;;6.47;;
64029;SDS011;50277;52.064;4.492;2023-11-19T10:23:03;28.25;;;6.40;;
64029;SDS011;50277;52.064;4.492;2023-11-19T10:25:28;34.55;;;8.25;;
64029;SDS011;50277;52.064;4.492;2023-11-19T10:27:54;29.60;;;6.43;;
64029;SDS011;50277;52.064;4.492;2023-11-19T10:30:21;33.33;;;6.45;;
64029;SDS011;50277;52.064;4.492;2023-11-19T10:35:33;24.90;;;6.47;;
64029;SDS011;50277;52.064;4.492;2023-11-19T10:38:00;26.77;;;6.60;;
64029;SDS011;50277;52.064;4.492;2023-11-19T10:48:01;28.88;;;5.95;;
64029;SDS011;50277;52.064;4.492;2023-11-19T10:50:27;33.35;;;6.25;;
64029;SDS011;50277;52.064;4.492;2023-11-19T10:52:55;30.40;;;6.28;;
64029;SDS011;50277;52.064;4.492;2023-11-19T10:55:26;29.10;;;6.75;;
64029;SDS011;50277;52.064;4.492;2023-11-19T10:57:53;29.35;;;6.32;;
64029;SDS011;50277;52.064;4.492;2023-11-19T11:00:23;34.97;;;6.57;;
64029;SDS011;50277;52.064;4.492;2023-11-19T11:02:50;22.95;;;5.18;;
64029;SDS011;50277;52.064;4.492;2023-11-19T11:05:16;28.95;;;6.13;;
64029;SDS011;50277;52.064;4.492;2023-11-19T11:07:41;34.75;;;6.28;;
64029;SDS011;50277;52.064;4.492;2023-11-19T11:10:07;26.10;;;5.30;;
64029;SDS011;50277;52.064;4.492;2023-11-19T11:12:35;25.33;;;5.10;;
64029;SDS011;50277;52.064;4.492;2023-11-19T11:15:02;32.58;;;6.72;;
64029;SDS011;50277;52.064;4.492;2023-11-19T11:17:30;34.33;;;7.57;;
64029;SDS011;50277;52.064;4.492;2023-11-19T11:19:57;32.25;;;7.43;;
64029;SDS011;50277;52.064;4.492;2023-11-19T11:22:22;32.63;;;7.70;;
64029;SDS011;50277;52.064;4.492;2023-11-19T11:24:58;38.00;;;7.55;;
64029;SDS011;50277;52.064;4.492;2023-11-19T11:36:06;37.08;;;7.70;;
64029;SDS011;50277;52.064;4.492;2023-11-19T11:38:36;31.25;;;6.82;;
64029;SDS011;50277;52.064;4.492;2023-11-19T11:41:22;42.38;;;7.13;;
64029;SDS011;50277;52.064;4.492;2023-11-19T11:43:50;34.08;;;6.97;;
64029;SDS011;50277;52.064;4.492;2023-11-19T11:49:23;37.50;;;7.95;;
64029;SDS011;50277;52.064;4.492;2023-11-19T11:57:00;31.23;;;6.80;;
64029;SDS011;50277;52.064;4.492;2023-11-19T11:59:26;31.15;;;5.47;;
64029;SDS011;50277;52.064;4.492;2023-11-19T12:02:01;32.38;;;5.85;;
64029;SDS011;50277;52.064;4.492;2023-11-19T12:04:28;31.10;;;6.32;;
64029;SDS011;50277;52.064;4.492;2023-11-19T12:07:06;27.25;;;5.75;;
64029;SDS011;50277;52.064;4.492;2023-11-19T12:09:33;21.85;;;4.95;;
64029;SDS011;50277;52.064;4.492;2023-11-19T12:14:59;31.80;;;5.90;;
64029;SDS011;50277;52.064;4.492;2023-11-19T12:20:06;26.15;;;5.55;;
64029;SDS011;50277;52.064;4.492;2023-11-19T12:22:38;28.95;;;6.32;;
64029;SDS011;50277;52.064;4.492;2023-11-19T12:25:07;31.75;;;6.03;;
64029;SDS011;50277;52.064;4.492;2023-11-19T12:27:37;41.17;;;6.97;;
64029;SDS011;50277;52.064;4.492;2023-11-19T12:30:06;32.90;;;7.03;;
64029;SDS011;50277;52.064;4.492;2023-11-19T12:35:04;31.88;;;6.20;;
64029;SDS011;50277;52.064;4.492;2023-11-19T12:37:29;35.33;;;6.70;;
64029;SDS011;50277;52.064;4.492;2023-11-19T12:39:56;31.88;;;6.07;;
64029;SDS011;50277;52.064;4.492;2023-11-19T12:42:34;36.53;;;6.47;;
64029;SDS011;50277;52.064;4.492;2023-11-19T12:45:00;38.08;;;6.88;;
64029;SDS011;50277;52.064;4.492;2023-11-19T12:47:25;40.20;;;7.25;;
64029;SDS011;50277;52.064;4.492;2023-11-19T12:49:57;36.95;;;7.85;;
64029;SDS011;50277;52.064;4.492;2023-11-19T12:52:23;35.35;;;6.40;;
64029;SDS011;50277;52.064;4.492;2023-11-19T12:54:48;35.70;;;6.70;;
64029;SDS011;50277;52.064;4.492;2023-11-19T12:57:14;38.50;;;7.57;;
64029;SDS011;50277;52.064;4.492;2023-11-19T12:59:40;36.47;;;7.65;;
64029;SDS011;50277;52.064;4.492;2023-11-19T13:02:05;42.90;;;7.57;;
64029;SDS011;50277;52.064;4.492;2023-11-19T13:04:31;37.45;;;7.38;;
64029;SDS011;50277;52.064;4.492;2023-11-19T13:06:57;44.35;;;7.63;;
64029;SDS011;50277;52.064;4.492;2023-11-19T13:09:24;40.72;;;7.68;;
64029;SDS011;50277;52.064;4.492;2023-11-19T13:11:50;34.58;;;6.72;;
64029;SDS011;50277;52.064;4.492;2023-11-19T13:14:15;43.75;;;8.05;;
64029;SDS011;50277;52.064;4.492;2023-11-19T13:16:41;29.80;;;6.10;;
64029;SDS011;50277;52.064;4.492;2023-11-19T13:19:07;40.13;;;7.13;;
64029;SDS011;50277;52.064;4.492;2023-11-19T13:21:33;29.27;;;5.82;;
64029;SDS011;50277;52.064;4.492;2023-11-19T13:23:59;30.15;;;6.32;;
64029;SDS011;50277;52.064;4.492;2023-11-19T13:26:24;31.10;;;7.10;;
64029;SDS011;50277;52.064;4.492;2023-11-19T13:28:50;48.47;;;8.32;;
64029;SDS011;50277;52.064;4.492;2023-11-19T13:31:16;34.58;;;6.60;;
64029;SDS011;50277;52.064;4.492;2023-11-19T13:33:42;43.90;;;8.77;;
64029;SDS011;50277;52.064;4.492;2023-11-19T13:36:07;34.50;;;6.50;;
64029;SDS011;50277;52.064;4.492;2023-11-19T13:38:33;43.97;;;7.20;;
64029;SDS011;50277;52.064;4.492;2023-11-19T13:41:00;38.00;;;7.45;;
64029;SDS011;50277;52.064;4.492;2023-11-19T13:43:25;30.75;;;6.57;;
64029;SDS011;50277;52.064;4.492;2023-11-19T13:45:53;44.08;;;7.68;;
64029;SDS011;50277;52.064;4.492;2023-11-19T13:48:18;36.05;;;6.30;;
64029;SDS011;50277;52.064;4.492;2023-11-19T13:50:44;41.55;;;6.97;;
64029;SDS011;50277;52.064;4.492;2023-11-19T13:53:10;38.60;;;7.63;;
64029;SDS011;50277;52.064;4.492;2023-11-19T13:55:35;32.47;;;6.15;;
64029;SDS011;50277;52.064;4.492;2023-11-19T13:58:01;34.13;;;6.30;;
64029;SDS011;50277;52.064;4.492;2023-11-19T14:00:26;37.42;;;7.53;;
64029;SDS011;50277;52.064;4.492;2023-11-19T14:02:51;29.45;;;6.60;;
64029;SDS011;50277;52.064;4.492;2023-11-19T14:05:17;39.72;;;7.57;;
64029;SDS011;50277;52.064;4.492;2023-11-19T14:07:43;28.75;;;6.10;;
64029;SDS011;50277;52.064;4.492;2023-11-19T14:10:09;33.33;;;7.10;;
64029;SDS011;50277;52.064;4.492;2023-11-19T14:12:36;31.45;;;5.63;;
64029;SDS011;50277;52.064;4.492;2023-11-19T14:15:02;32.78;;;6.32;;
64029;SDS011;50277;52.064;4.492;2023-11-19T14:17:30;37.10;;;6.43;;
64029;SDS011;50277;52.064;4.492;2023-11-19T14:19:56;34.00;;;7.15;;
64029;SDS011;50277;52.064;4.492;2023-11-19T14:22:21;35.35;;;8.43;;
64029;SDS011;50277;52.064;4.492;2023-11-19T14:24:47;39.35;;;6.97;;
64029;SDS011;50277;52.064;4.492;2023-11-19T14:27:12;35.38;;;6.30;;
64029;SDS011;50277;52.064;4.492;2023-11-19T14:29:37;37.00;;;6.75;;
64029;SDS011;50277;52.064;4.492;2023-11-19T14:32:03;35.10;;;7.32;;
64029;SDS011;50277;52.064;4.492;2023-11-19T14:34:32;26.35;;;5.70;;
64029;SDS011;50277;52.064;4.492;2023-11-19T14:36:57;35.97;;;7.05;;
64029;SDS011;50277;52.064;4.492;2023-11-19T14:39:23;32.08;;;6.22;;
64029;SDS011;50277;52.064;4.492;2023-11-19T14:41:48;32.45;;;6.70;;
64029;SDS011;50277;52.064;4.492;2023-11-19T14:44:14;37.55;;;6.38;;
64029;SDS011;50277;52.064;4.492;2023-11-19T14:46:40;43.75;;;6.53;;
64029;SDS011;50277;52.064;4.492;2023-11-19T14:49:06;34.47;;;6.10;;
64029;SDS011;50277;52.064;4.492;2023-11-19T14:51:35;35.05;;;6.25;;
64029;SDS011;50277;52.064;4.492;2023-11-19T14:54:01;33.88;;;5.80;;
64029;SDS011;50277;52.064;4.492;2023-11-19T14:56:28;36.85;;;7.03;;
64029;SDS011;50277;52.064;4.492;2023-11-19T14:58:53;29.90;;;6.82;;
64029;SDS011;50277;52.064;4.492;2023-11-19T15:01:18;42.53;;;6.20;;
64029;SDS011;50277;52.064;4.492;2023-11-19T15:03:44;37.20;;;5.40;;
64029;SDS011;50277;52.064;4.492;2023-11-19T15:06:09;37.95;;;6.70;;